createdAt,value
2023-04-02T00:01:28.097Z,89.26
2023-04-02T00:04:22.321Z,89.33
2023-04-02T00:06:57.282Z,89.48
2023-04-02T00:09:37.513Z,89.50
2023-04-02T00:12:24.396Z,89.79
2023-04-02T00:14:58.211Z,89.76
2023-04-02T00:17:29.592Z,89.74
2023-04-02T00:20:06.666Z,89.68
2023-04-02T00:22:44.681Z,89.77
2023-04-02T00:25:16.911Z,90.02
2023-04-02T00:27:49.006Z,90.19
2023-04-02T00:30:20.099Z,90.21
2023-04-02T00:32:52.768Z,90.30
2023-04-02T00:35:27.690Z,90.22
2023-04-02T00:37:59.474Z,90.21
2023-04-02T00:40:33.009Z,90.18
2023-04-02T00:43:07.274Z,90.09
2023-04-02T00:45:40.322Z,90.03
2023-04-02T00:48:30.135Z,90.05
2023-04-02T00:51:09.297Z,89.95
2023-04-02T00:53:42.991Z,89.77
2023-04-02T00:56:20.927Z,89.80
2023-04-02T00:58:57.040Z,89.69
2023-04-02T01:01:34.324Z,89.61
2023-04-02T01:04:06.804Z,89.65
2023-04-02T01:06:39.618Z,89.57
2023-04-02T01:09:23.824Z,89.53
2023-04-02T01:12:22.643Z,89.54
2023-04-02T01:15:02.342Z,89.47
2023-04-02T01:17:48.950Z,89.30
2023-04-02T01:20:57.276Z,89.36
2023-04-02T01:23:35.638Z,89.36
2023-04-02T01:26:18.116Z,89.24
2023-04-02T01:29:01.631Z,89.28
2023-04-02T01:31:34.306Z,89.43
2023-04-02T01:34:07.708Z,89.44
2023-04-02T01:36:44.970Z,89.52
2023-04-02T01:39:28.909Z,89.52
2023-04-02T01:42:09.295Z,89.66
2023-04-02T01:44:44.093Z,89.57
2023-04-02T01:47:18.358Z,89.63
2023-04-02T01:49:50.165Z,89.67
2023-04-02T01:52:36.438Z,89.60
2023-04-02T01:55:09.691Z,89.58
2023-04-02T01:57:42.126Z,89.56
2023-04-02T02:00:17.782Z,89.49
2023-04-02T02:02:51.726Z,89.35
2023-04-02T02:05:24.684Z,89.47
2023-04-02T02:07:58.068Z,89.54
2023-04-02T02:10:34.491Z,89.43
2023-04-02T02:13:07.366Z,89.52
2023-04-02T02:15:38.517Z,89.47
2023-04-02T02:18:12.798Z,89.38
2023-04-02T02:20:44.599Z,89.44
2023-04-02T02:23:17.102Z,89.40
2023-04-02T02:25:50.003Z,89.34
2023-04-02T02:28:25.023Z,89.22
2023-04-02T02:31:00.010Z,89.13
2023-04-02T02:33:33.811Z,89.03
2023-04-02T02:36:11.242Z,88.96
2023-04-02T02:38:54.277Z,88.99
2023-04-02T02:41:32.196Z,88.90
2023-04-02T02:44:12.320Z,88.79
2023-04-02T02:46:49.767Z,88.80
2023-04-02T02:49:25.443Z,88.89
2023-04-02T02:52:03.028Z,88.86
2023-04-02T02:54:36.334Z,88.71
2023-04-02T02:57:12.818Z,88.44
2023-04-02T02:59:45.187Z,88.51
2023-04-02T03:02:17.391Z,88.65
2023-04-02T03:04:53.215Z,88.62
2023-04-02T03:07:26.877Z,88.46
2023-04-02T03:10:05.625Z,88.66
2023-04-02T03:12:48.332Z,88.64
2023-04-02T03:15:33.696Z,88.69
2023-04-02T03:18:08.970Z,88.75
2023-04-02T03:20:48.682Z,88.71
2023-04-02T03:23:24.934Z,88.72
2023-04-02T03:26:01.814Z,88.77
2023-04-02T03:28:35.962Z,88.69
2023-04-02T03:31:10.357Z,88.80
2023-04-02T03:33:45.717Z,88.80
2023-04-02T03:36:22.819Z,88.75
2023-04-02T03:38:57.915Z,88.82
2023-04-02T03:41:34.982Z,88.79
2023-04-02T03:44:07.817Z,88.92
2023-04-02T03:46:43.107Z,89.04
2023-04-02T03:49:20.718Z,88.78
2023-04-02T03:51:58.740Z,88.82
2023-04-02T03:54:31.518Z,88.91
2023-04-02T03:57:03.726Z,88.93
2023-04-02T03:59:42.819Z,88.83
2023-04-02T04:02:29.572Z,88.71
2023-04-02T04:05:01.975Z,88.46
2023-04-02T04:07:37.787Z,88.35
2023-04-02T04:10:18.104Z,88.50
2023-04-02T04:12:53.034Z,88.57
2023-04-02T04:15:28.291Z,88.32
2023-04-02T04:18:04.373Z,88.13
2023-04-02T04:20:45.988Z,88.00
2023-04-02T04:23:26.037Z,88.01
2023-04-02T04:26:09.710Z,87.86
2023-04-02T04:28:48.477Z,87.82
2023-04-02T04:31:30.967Z,87.66
2023-04-02T04:34:09.979Z,87.57
2023-04-02T04:36:48.125Z,87.33
2023-04-02T04:39:23.514Z,87.46
2023-04-02T04:41:56.259Z,87.50
2023-04-02T04:44:39.233Z,87.54
2023-04-02T04:47:16.599Z,87.60
2023-04-02T04:49:53.401Z,87.51
2023-04-02T04:52:27.590Z,87.64
2023-04-02T04:54:58.545Z,87.58
2023-04-02T04:57:35.645Z,87.42
2023-04-02T05:00:15.817Z,87.60
2023-04-02T05:02:51.757Z,87.49
2023-04-02T05:05:26.161Z,87.34
2023-04-02T05:08:05.885Z,87.09
2023-04-02T05:10:43.224Z,86.98
2023-04-02T05:13:17.718Z,86.57
2023-04-02T05:15:56.124Z,86.52
2023-04-02T05:18:33.414Z,86.65
2023-04-02T05:21:07.917Z,86.32
2023-04-02T05:23:47.333Z,86.36
2023-04-02T05:26:22.015Z,86.43
2023-04-02T05:28:58.417Z,86.18
2023-04-02T05:31:39.111Z,86.26
2023-04-02T05:34:12.384Z,85.82
2023-04-02T05:36:47.022Z,85.85
2023-04-02T05:39:24.355Z,85.49
2023-04-02T05:42:04.574Z,85.47
2023-04-02T05:44:39.220Z,85.12
2023-04-02T05:47:15.465Z,85.48
2023-04-02T05:49:51.666Z,85.37
2023-04-02T05:52:29.027Z,84.96
2023-04-02T05:55:06.493Z,84.29
2023-04-02T05:57:46.841Z,84.44
2023-04-02T06:00:26.565Z,84.36
2023-04-02T06:03:02.016Z,84.17
2023-04-02T06:05:39.487Z,84.19
2023-04-02T06:08:16.374Z,83.93
2023-04-02T06:10:54.708Z,83.82
2023-04-02T06:13:26.313Z,83.48
2023-04-02T06:15:57.646Z,83.13
2023-04-02T06:18:32.025Z,82.76
2023-04-02T06:21:04.109Z,82.63
2023-04-02T06:23:41.287Z,82.55
2023-04-02T06:26:18.062Z,82.46
2023-04-02T06:29:15.306Z,82.59
2023-04-02T06:31:51.115Z,82.78
2023-04-02T06:34:24.950Z,82.43
2023-04-02T06:36:59.805Z,82.10
2023-04-02T06:39:31.305Z,81.77
2023-04-02T06:42:05.819Z,81.45
2023-04-02T06:44:38.843Z,82.16
2023-04-02T06:47:18.625Z,81.77
2023-04-02T06:49:54.815Z,80.12
2023-04-02T06:52:29.802Z,80.80
2023-04-02T06:55:01.188Z,79.91
2023-04-02T06:57:36.024Z,79.74
2023-04-02T07:00:19.975Z,79.91
2023-04-02T07:02:52.077Z,79.42
2023-04-02T07:05:23.422Z,80.01
2023-04-02T07:07:54.649Z,79.74
2023-04-02T07:10:24.019Z,79.87
2023-04-02T07:12:55.473Z,80.49
2023-04-02T07:15:26.719Z,80.06
2023-04-02T07:17:59.370Z,78.88
2023-04-02T07:20:33.815Z,79.74
2023-04-02T07:23:05.136Z,79.57
2023-04-02T07:25:36.664Z,79.59
2023-04-02T07:28:08.188Z,79.65
2023-04-02T07:30:39.793Z,78.62
2023-04-02T07:33:14.067Z,79.01
2023-04-02T07:35:45.414Z,77.56
2023-04-02T07:38:16.602Z,77.37
2023-04-02T07:40:47.921Z,77.68
2023-04-02T07:43:19.161Z,77.16
2023-04-02T07:45:50.782Z,78.17
2023-04-02T07:48:21.976Z,77.36
2023-04-02T07:50:51.535Z,76.12
2023-04-02T07:53:32.601Z,75.42
2023-04-02T07:56:05.924Z,76.59
2023-04-02T07:58:37.073Z,76.00
2023-04-02T08:01:15.780Z,75.36
2023-04-02T08:03:47.603Z,75.20
2023-04-02T08:06:19.241Z,75.70
2023-04-02T08:08:50.500Z,76.23
2023-04-02T08:11:21.734Z,76.18
2023-04-02T08:13:53.176Z,75.97
2023-04-02T08:16:25.555Z,74.12
2023-04-02T08:18:56.950Z,75.39
2023-04-02T08:21:29.491Z,74.18
2023-04-02T08:24:00.691Z,73.13
2023-04-02T08:26:32.112Z,71.73
2023-04-02T08:29:03.217Z,72.23
2023-04-02T08:31:34.816Z,71.97
2023-04-02T08:34:06.069Z,70.99
2023-04-02T08:36:37.497Z,71.98
2023-04-02T08:39:11.871Z,72.85
2023-04-02T08:41:51.991Z,73.17
2023-04-02T08:44:38.057Z,72.88
2023-04-02T08:47:11.152Z,73.03
2023-04-02T08:49:50.915Z,73.45
2023-04-02T08:52:27.025Z,72.80
2023-04-02T08:55:00.504Z,72.39
2023-04-02T08:57:40.933Z,71.91
2023-04-02T09:00:27.646Z,71.63
2023-04-02T09:03:03.615Z,70.51
2023-04-02T09:05:38.644Z,69.35
2023-04-02T09:08:20.047Z,67.84
2023-04-02T09:10:56.697Z,70.14
2023-04-02T09:13:30.259Z,69.15
2023-04-02T09:16:08.944Z,68.89
2023-04-02T09:18:42.182Z,69.91
2023-04-02T09:21:34.758Z,68.75
2023-04-02T09:24:06.677Z,67.61
2023-04-02T09:26:38.241Z,67.58
2023-04-02T09:29:38.066Z,68.10
2023-04-02T09:32:30.970Z,68.73
2023-04-02T09:35:26.272Z,68.33
2023-04-02T09:38:24.783Z,67.74
2023-04-02T09:41:02.853Z,67.23
2023-04-02T09:43:35.775Z,67.73
2023-04-02T09:46:15.906Z,67.98
2023-04-02T09:48:54.367Z,66.87
2023-04-02T09:51:27.104Z,66.94
2023-04-02T09:54:14.431Z,67.54
2023-04-02T09:57:02.796Z,67.35
2023-04-02T09:59:33.902Z,67.72
2023-04-02T10:02:06.508Z,68.04
2023-04-02T10:04:44.325Z,67.54
2023-04-02T10:07:35.530Z,67.54
2023-04-02T10:10:21.166Z,67.68
2023-04-02T10:13:01.059Z,66.52
2023-04-02T10:15:40.670Z,67.63
2023-04-02T10:18:19.323Z,66.34
2023-04-02T10:20:52.948Z,66.01
2023-04-02T10:23:30.596Z,65.34
2023-04-02T10:26:10.539Z,65.53
2023-04-02T10:29:10.839Z,65.55
2023-04-02T10:31:50.340Z,65.63
2023-04-02T10:34:25.977Z,66.01
2023-04-02T10:36:59.378Z,66.47
2023-04-02T10:39:40.545Z,65.80
2023-04-02T10:42:24.277Z,64.29
2023-04-02T10:45:02.263Z,64.49
2023-04-02T10:47:44.847Z,63.90
2023-04-02T10:50:32.598Z,64.20
2023-04-02T10:53:12.542Z,64.65
2023-04-02T10:55:49.578Z,64.60
2023-04-02T11:01:17.071Z,65.92
2023-04-02T11:03:57.832Z,65.21
2023-04-02T11:06:37.620Z,64.49
2023-04-02T11:09:17.097Z,63.96
2023-04-02T11:11:51.708Z,65.06
2023-04-02T11:14:26.067Z,66.24
2023-04-02T11:17:00.743Z,65.57
2023-04-02T11:19:33.137Z,66.03
2023-04-02T11:22:06.878Z,65.32
2023-04-02T11:24:47.020Z,66.41
2023-04-02T11:27:29.019Z,64.00
2023-04-02T11:30:13.027Z,65.27
2023-04-02T11:32:47.412Z,65.31
2023-04-02T11:35:40.630Z,65.12
2023-04-02T11:38:46.470Z,64.96
2023-04-02T11:41:37.278Z,66.37
2023-04-02T11:44:22.919Z,65.82
2023-04-02T11:46:54.237Z,64.40
2023-04-02T11:50:01.423Z,64.70
2023-04-02T11:52:37.218Z,63.87
2023-04-02T11:55:31.989Z,64.89
2023-04-02T11:58:11.950Z,63.80
2023-04-02T12:01:16.335Z,63.60
2023-04-02T12:04:00.273Z,62.48
2023-04-02T12:06:42.478Z,63.04
2023-04-02T12:09:22.647Z,63.17
2023-04-02T12:12:00.343Z,62.11
2023-04-02T12:14:47.214Z,61.64
2023-04-02T12:17:27.251Z,62.13
2023-04-02T12:20:02.754Z,62.22
2023-04-02T12:22:37.009Z,62.97
2023-04-02T12:25:22.853Z,63.32
2023-04-02T12:28:11.545Z,63.47
2023-04-02T12:30:43.728Z,63.89
2023-04-02T12:33:35.481Z,64.34
2023-04-02T12:36:18.451Z,61.69
2023-04-02T12:38:56.435Z,61.86
2023-04-02T12:41:30.964Z,62.42
2023-04-02T12:44:04.555Z,61.59
2023-04-02T12:46:36.874Z,62.33
2023-04-02T12:49:12.726Z,62.77
2023-04-02T12:51:45.407Z,61.56
2023-04-02T12:54:19.694Z,60.46
2023-04-02T12:56:51.755Z,60.12
2023-04-02T12:59:36.117Z,60.90
2023-04-02T13:02:21.665Z,61.23
2023-04-02T13:04:54.740Z,61.78
2023-04-02T13:07:28.158Z,61.63
2023-04-02T13:10:01.346Z,61.83
2023-04-02T13:12:36.409Z,60.86
2023-04-02T13:15:10.201Z,60.50
2023-04-02T13:17:47.313Z,60.23
2023-04-02T13:20:36.868Z,61.23
2023-04-02T13:23:33.718Z,60.51
2023-04-02T13:26:15.929Z,60.83
2023-04-02T13:28:58.570Z,61.12
2023-04-02T13:31:30.931Z,62.16
2023-04-02T13:34:02.503Z,62.26
2023-04-02T13:36:34.428Z,61.28
2023-04-02T13:39:06.189Z,60.26
2023-04-02T13:41:41.462Z,60.14
2023-04-02T13:44:21.184Z,61.57
2023-04-02T13:46:53.003Z,62.12
2023-04-02T13:49:25.324Z,60.67
2023-04-02T13:51:59.240Z,60.67
2023-04-02T13:54:39.580Z,60.86
2023-04-02T13:57:11.665Z,60.44
2023-04-02T13:59:43.150Z,60.54
2023-04-02T14:02:19.023Z,61.18
2023-04-02T14:04:54.232Z,60.69
2023-04-02T14:07:37.443Z,61.22
2023-04-02T14:10:24.051Z,61.69
2023-04-02T14:13:12.327Z,62.81
2023-04-02T14:16:00.168Z,62.88
2023-04-02T14:18:47.916Z,61.87
2023-04-02T14:21:34.281Z,61.31
2023-04-02T14:24:17.388Z,61.81
2023-04-02T14:27:02.339Z,62.27
2023-04-02T14:29:39.068Z,62.92
2023-04-02T14:32:16.180Z,62.67
2023-04-02T14:35:04.381Z,63.01
2023-04-02T14:37:44.208Z,63.18
2023-04-02T14:40:28.293Z,63.17
2023-04-02T14:43:04.690Z,63.61
2023-04-02T14:45:57.049Z,63.93
2023-04-02T14:48:43.288Z,64.31
2023-04-02T14:51:25.804Z,64.86
2023-04-02T14:54:05.788Z,64.66
2023-04-02T14:56:46.588Z,64.53
2023-04-02T14:59:29.182Z,64.50
2023-04-02T15:02:04.629Z,63.84
2023-04-02T15:05:01.614Z,63.79
2023-04-02T15:07:41.006Z,63.91
2023-04-02T15:10:23.344Z,63.67
2023-04-02T15:12:59.335Z,63.34
2023-04-02T15:15:43.239Z,63.77
2023-04-02T15:18:18.091Z,63.64
2023-04-02T15:21:01.440Z,64.02
2023-04-02T15:23:36.499Z,63.91
2023-04-02T15:26:19.723Z,63.57
2023-04-02T15:28:57.869Z,63.87
2023-04-02T15:31:31.044Z,63.65
2023-04-02T15:34:18.179Z,63.88
2023-04-02T15:37:05.886Z,64.24
2023-04-02T15:39:51.028Z,63.69
2023-04-02T15:42:31.046Z,63.77
2023-04-02T15:45:20.851Z,63.58
2023-04-02T15:48:12.692Z,64.11
2023-04-02T15:50:53.319Z,64.04
2023-04-02T15:53:35.550Z,63.90
2023-04-02T15:56:22.578Z,64.30
2023-04-02T15:59:13.186Z,63.89
2023-04-02T16:01:55.114Z,64.15
2023-04-02T16:04:44.131Z,63.88
2023-04-02T16:07:32.528Z,63.87
2023-04-02T16:10:13.122Z,64.22
2023-04-02T16:12:44.673Z,64.38
2023-04-02T16:15:23.772Z,64.63
2023-04-02T16:18:01.160Z,64.01
2023-04-02T16:20:37.887Z,63.53
2023-04-02T16:23:15.178Z,63.73
2023-04-02T16:25:48.480Z,63.74
2023-04-02T16:28:25.578Z,64.08
2023-04-02T16:31:03.754Z,64.25
2023-04-02T16:33:45.655Z,63.66
2023-04-02T16:36:36.682Z,63.93
2023-04-02T16:39:14.931Z,63.61
2023-04-02T16:42:00.497Z,63.54
2023-04-02T16:44:43.768Z,64.13
2023-04-02T16:47:45.895Z,64.82
2023-04-02T16:50:27.199Z,64.39
2023-04-02T16:53:08.245Z,63.61
2023-04-02T16:55:48.013Z,63.25
2023-04-02T16:58:32.515Z,63.40
2023-04-02T17:01:11.726Z,63.30
2023-04-02T17:03:56.869Z,63.53
2023-04-02T17:06:42.207Z,63.99
2023-04-02T17:09:19.923Z,63.64
2023-04-02T17:11:55.352Z,64.36
2023-04-02T17:14:40.000Z,64.65
2023-04-02T17:17:15.732Z,64.76
2023-04-02T17:19:48.836Z,64.91
2023-04-02T17:22:22.971Z,65.20
2023-04-02T17:24:58.262Z,65.14
2023-04-02T17:27:34.428Z,65.31
2023-04-02T17:30:14.113Z,65.80
2023-04-02T17:32:46.593Z,66.44
2023-04-02T17:35:23.979Z,66.28
2023-04-02T17:38:01.324Z,66.54
2023-04-02T17:40:42.828Z,66.44
2023-04-02T17:43:20.324Z,66.99
2023-04-02T17:45:56.267Z,68.16
2023-04-02T17:48:35.734Z,67.40
2023-04-02T17:51:11.958Z,66.66
2023-04-02T17:53:51.442Z,65.61
2023-04-02T17:56:38.975Z,66.06
2023-04-02T17:59:29.104Z,66.53
2023-04-02T18:02:12.639Z,67.09
2023-04-02T18:04:53.325Z,65.72
2023-04-02T18:07:40.528Z,64.85
2023-04-02T18:10:21.138Z,64.89
2023-04-02T18:13:05.954Z,63.34
2023-04-02T18:16:02.999Z,63.79
2023-04-02T18:18:47.123Z,64.46
2023-04-02T18:21:30.307Z,64.36
2023-04-02T18:24:22.190Z,64.40
2023-04-02T18:27:03.824Z,64.35
2023-04-02T18:29:44.258Z,63.54
2023-04-02T18:32:32.665Z,62.65
2023-04-02T18:35:14.613Z,63.21
2023-04-02T18:37:59.262Z,63.32
2023-04-02T18:40:40.057Z,63.91
2023-04-02T18:43:22.140Z,63.76
2023-04-02T18:46:00.214Z,64.42
2023-04-02T18:48:40.869Z,65.82
2023-04-02T18:51:19.807Z,66.57
2023-04-02T18:53:53.074Z,67.61
2023-04-02T18:56:25.807Z,65.67
2023-04-02T18:59:01.489Z,66.70
2023-04-02T19:01:40.102Z,68.24
2023-04-02T19:04:18.878Z,68.50
2023-04-02T19:06:54.823Z,67.41
2023-04-02T19:09:29.147Z,67.42
2023-04-02T19:12:00.507Z,67.04
2023-04-02T19:14:32.384Z,68.07
2023-04-02T19:17:04.298Z,67.07
2023-04-02T19:19:38.780Z,67.79
2023-04-02T19:22:33.549Z,69.27
2023-04-02T19:25:19.662Z,68.70
2023-04-02T19:28:05.758Z,69.26
2023-04-02T19:31:04.743Z,69.81
2023-04-02T19:33:51.291Z,69.71
2023-04-02T19:36:36.268Z,69.32
2023-04-02T19:39:29.086Z,68.26
2023-04-02T19:42:08.031Z,66.97
2023-04-02T19:44:49.395Z,66.94
2023-04-02T19:47:21.552Z,66.69
2023-04-02T19:49:52.807Z,66.61
2023-04-02T19:52:23.957Z,66.42
2023-04-02T19:54:54.950Z,65.79
2023-04-02T19:57:26.168Z,66.51
2023-04-02T19:59:57.366Z,66.31
2023-04-02T20:02:28.521Z,65.62
2023-04-02T20:04:59.457Z,66.45
2023-04-02T20:07:31.590Z,66.08
2023-04-02T20:10:02.840Z,67.00
2023-04-02T20:12:34.735Z,67.07
2023-04-02T20:15:08.495Z,67.60
2023-04-02T20:17:39.737Z,67.97
2023-04-02T20:20:13.723Z,67.61
2023-04-02T20:22:44.929Z,67.75
2023-04-02T20:25:16.173Z,67.53
2023-04-02T20:27:45.646Z,66.11
2023-04-02T20:30:17.344Z,64.94
2023-04-02T20:32:48.870Z,65.50
2023-04-02T20:35:20.427Z,65.33
2023-04-02T20:37:54.048Z,65.57
2023-04-02T20:40:25.340Z,65.89
2023-04-02T20:42:54.834Z,66.13
2023-04-02T20:45:27.989Z,66.80
2023-04-02T20:47:59.162Z,66.19
2023-04-02T20:50:30.353Z,66.24
2023-04-02T20:53:03.335Z,67.09
2023-04-02T20:55:34.323Z,67.78
2023-04-02T20:58:05.465Z,67.65
2023-04-02T21:00:36.606Z,68.35
2023-04-02T21:03:09.899Z,68.86
2023-04-02T21:05:47.171Z,69.19
2023-04-02T21:08:18.571Z,69.23
2023-04-02T21:10:49.637Z,69.86
2023-04-02T21:13:20.870Z,70.02
2023-04-02T21:15:50.361Z,69.53
2023-04-02T21:18:21.625Z,70.23
2023-04-02T21:21:00.791Z,70.51
2023-04-02T21:23:33.010Z,70.96
2023-04-02T21:26:06.565Z,71.55
2023-04-02T21:28:37.837Z,72.09
2023-04-02T21:31:11.764Z,72.17
2023-04-02T21:33:45.124Z,72.51
2023-04-02T21:36:18.245Z,72.53
2023-04-02T21:38:51.580Z,72.38
2023-04-02T21:41:25.182Z,72.08
2023-04-02T21:43:57.874Z,72.11
2023-04-02T21:46:30.626Z,72.49
2023-04-02T21:49:02.291Z,72.80
2023-04-02T21:51:35.792Z,72.98
2023-04-02T21:54:07.800Z,72.73
2023-04-02T21:56:40.501Z,72.76
2023-04-02T21:59:13.352Z,73.14
2023-04-02T22:01:47.127Z,73.62
2023-04-02T22:04:20.946Z,73.44
2023-04-02T22:06:53.276Z,73.41
2023-04-02T22:09:26.252Z,73.30
2023-04-02T22:11:59.854Z,73.56
2023-04-02T22:14:32.064Z,74.10
2023-04-02T22:17:03.666Z,74.44
2023-04-02T22:19:34.941Z,74.63
2023-04-02T22:22:07.003Z,74.66
2023-04-02T22:24:38.123Z,74.80
2023-04-02T22:27:09.425Z,74.63
2023-04-02T22:29:39.038Z,74.05
2023-04-02T22:32:10.401Z,74.13
2023-04-02T22:34:45.876Z,74.06
2023-04-02T22:37:16.863Z,72.43
2023-04-02T22:39:48.167Z,72.21
2023-04-02T22:42:17.872Z,72.06
2023-04-02T22:44:49.422Z,71.85
2023-04-02T22:47:20.827Z,72.11
2023-04-02T22:49:51.971Z,71.16
2023-04-02T22:52:22.909Z,70.87
2023-04-02T22:54:54.173Z,68.99
2023-04-02T22:57:25.089Z,68.76
2023-04-02T22:59:56.336Z,69.23
2023-04-02T23:02:28.036Z,69.12
2023-04-02T23:04:59.186Z,68.07
2023-04-02T23:07:28.908Z,68.02
2023-04-02T23:09:59.898Z,68.04
2023-04-02T23:12:31.196Z,68.34
2023-04-02T23:15:02.216Z,67.75
2023-04-02T23:17:33.712Z,67.86
2023-04-02T23:20:04.928Z,67.33
2023-04-02T23:22:34.814Z,66.04
2023-04-02T23:25:06.842Z,64.96
2023-04-02T23:27:38.295Z,64.41
2023-04-02T23:30:11.056Z,64.74
2023-04-02T23:32:41.994Z,64.37
2023-04-02T23:35:13.083Z,64.25
2023-04-02T23:37:43.941Z,64.65
2023-04-02T23:40:15.322Z,63.61
2023-04-02T23:42:46.416Z,63.98
2023-04-02T23:45:17.861Z,64.54
2023-04-02T23:47:48.985Z,64.49
2023-04-02T23:50:20.166Z,64.89
2023-04-02T23:52:51.304Z,64.99
2023-04-02T23:55:22.212Z,65.17
2023-04-02T23:57:53.284Z,65.69
